sensor_id;sensor_type;location;lat;lon;timestamp;temperature;humidity
8178;DHT22;4130;48.740;9.132;2024-01-30T00:01:24;1.30;99.90
8178;DHT22;4130;48.740;9.132;2024-01-30T00:03:51;1.30;99.90
8178;DHT22;4130;48.740;9.132;2024-01-30T00:06:19;1.30;99.90
8178;DHT22;4130;48.740;9.132;2024-01-30T00:08:46;1.40;99.90
8178;DHT22;4130;48.740;9.132;2024-01-30T00:11:14;1.40;99.90
8178;DHT22;4130;48.740;9.132;2024-01-30T00:13:43;1.50;99.90
8178;DHT22;4130;48.740;9.132;2024-01-30T00:16:20;1.50;99.90
8178;DHT22;4130;48.740;9.132;2024-01-30T00:18:47;1.50;99.90
8178;DHT22;4130;48.740;9.132;2024-01-30T00:21:14;1.40;99.90
8178;DHT22;4130;48.740;9.132;2024-01-30T00:23:41;1.40;99.90
8178;DHT22;4130;48.740;9.132;2024-01-30T00:26:08;1.50;99.90
8178;DHT22;4130;48.740;9.132;2024-01-30T00:28:35;1.50;99.90
8178;DHT22;4130;48.740;9.132;2024-01-30T00:31:04;1.50;99.90
8178;DHT22;4130;48.740;9.132;2024-01-30T00:33:31;1.50;99.90
8178;DHT22;4130;48.740;9.132;2024-01-30T00:35:58;1.50;99.90
8178;DHT22;4130;48.740;9.132;2024-01-30T00:38:25;1.50;99.90
8178;DHT22;4130;48.740;9.132;2024-01-30T00:40:52;1.40;99.90
8178;DHT22;4130;48.740;9.132;2024-01-30T00:43:19;1.40;99.90
8178;DHT22;4130;48.740;9.132;2024-01-30T00:45:46;1.50;99.90
8178;DHT22;4130;48.740;9.132;2024-01-30T00:48:15;1.50;99.90
8178;DHT22;4130;48.740;9.132;2024-01-30T00:50:42;1.50;99.90
8178;DHT22;4130;48.740;9.132;2024-01-30T00:53:09;1.50;99.90
8178;DHT22;4130;48.740;9.132;2024-01-30T00:55:36;1.50;99.90
8178;DHT22;4130;48.740;9.132;2024-01-30T00:58:04;1.50;99.90
8178;DHT22;4130;48.740;9.132;2024-01-30T01:00:31;1.40;99.90
8178;DHT22;4130;48.740;9.132;2024-01-30T01:02:58;1.50;99.90
8178;DHT22;4130;48.740;9.132;2024-01-30T01:05:27;1.50;99.90
8178;DHT22;4130;48.740;9.132;2024-01-30T01:07:54;1.60;99.90
8178;DHT22;4130;48.740;9.132;2024-01-30T01:10:21;1.60;99.90
8178;DHT22;4130;48.740;9.132;2024-01-30T01:12:48;1.60;99.90
8178;DHT22;4130;48.740;9.132;2024-01-30T01:15:15;1.60;99.90
8178;DHT22;4130;48.740;9.132;2024-01-30T01:17:42;1.60;99.90
8178;DHT22;4130;48.740;9.132;2024-01-30T01:20:10;1.60;99.90
8178;DHT22;4130;48.740;9.132;2024-01-30T01:22:38;1.50;99.90
8178;DHT22;4130;48.740;9.132;2024-01-30T01:25:06;1.50;99.90
8178;DHT22;4130;48.740;9.132;2024-01-30T01:27:34;1.50;99.90
8178;DHT22;4130;48.740;9.132;2024-01-30T01:30:07;1.40;99.90
8178;DHT22;4130;48.740;9.132;2024-01-30T01:32:35;1.40;99.90
8178;DHT22;4130;48.740;9.132;2024-01-30T01:35:02;1.40;99.90
8178;DHT22;4130;48.740;9.132;2024-01-30T01:37:31;1.30;99.90
8178;DHT22;4130;48.740;9.132;2024-01-30T01:39:59;1.30;99.90
8178;DHT22;4130;48.740;9.132;2024-01-30T01:42:26;1.30;99.90
8178;DHT22;4130;48.740;9.132;2024-01-30T01:44:53;1.20;99.90
8178;DHT22;4130;48.740;9.132;2024-01-30T01:47:21;1.20;99.90
8178;DHT22;4130;48.740;9.132;2024-01-30T01:49:48;1.10;99.90
8178;DHT22;4130;48.740;9.132;2024-01-30T01:52:15;1.10;99.90
8178;DHT22;4130;48.740;9.132;2024-01-30T01:54:42;1.10;99.90
8178;DHT22;4130;48.740;9.132;2024-01-30T01:57:11;1.10;99.90
8178;DHT22;4130;48.740;9.132;2024-01-30T01:59:38;1.00;99.90
8178;DHT22;4130;48.740;9.132;2024-01-30T02:02:06;1.00;99.90
8178;DHT22;4130;48.740;9.132;2024-01-30T02:04:35;1.00;99.90
8178;DHT22;4130;48.740;9.132;2024-01-30T02:07:03;1.10;99.90
8178;DHT22;4130;48.740;9.132;2024-01-30T02:09:30;1.10;99.90
8178;DHT22;4130;48.740;9.132;2024-01-30T02:11:57;1.10;99.90
8178;DHT22;4130;48.740;9.132;2024-01-30T02:14:26;1.10;99.90
8178;DHT22;4130;48.740;9.132;2024-01-30T02:16:53;1.00;99.90
8178;DHT22;4130;48.740;9.132;2024-01-30T02:19:20;1.00;99.90
8178;DHT22;4130;48.740;9.132;2024-01-30T02:21:48;0.90;99.90
8178;DHT22;4130;48.740;9.132;2024-01-30T02:24:16;0.90;99.90
8178;DHT22;4130;48.740;9.132;2024-01-30T02:26:44;0.90;99.90
8178;DHT22;4130;48.740;9.132;2024-01-30T02:29:11;0.90;99.90
8178;DHT22;4130;48.740;9.132;2024-01-30T02:31:38;0.90;99.90
8178;DHT22;4130;48.740;9.132;2024-01-30T02:34:05;0.80;99.90
8178;DHT22;4130;48.740;9.132;2024-01-30T02:36:32;0.80;99.90
8178;DHT22;4130;48.740;9.132;2024-01-30T02:39:01;0.80;99.90
8178;DHT22;4130;48.740;9.132;2024-01-30T02:41:28;0.70;99.90
8178;DHT22;4130;48.740;9.132;2024-01-30T02:43:55;0.70;99.90
8178;DHT22;4130;48.740;9.132;2024-01-30T02:46:23;0.80;99.90
8178;DHT22;4130;48.740;9.132;2024-01-30T02:48:50;0.80;99.90
8178;DHT22;4130;48.740;9.132;2024-01-30T02:51:17;0.80;99.90
8178;DHT22;4130;48.740;9.132;2024-01-30T02:53:44;0.80;99.90
8178;DHT22;4130;48.740;9.132;2024-01-30T02:56:13;0.90;99.90
8178;DHT22;4130;48.740;9.132;2024-01-30T02:58:40;0.90;99.90
8178;DHT22;4130;48.740;9.132;2024-01-30T03:01:07;0.90;99.90
8178;DHT22;4130;48.740;9.132;2024-01-30T03:03:35;0.90;99.90
8178;DHT22;4130;48.740;9.132;2024-01-30T03:06:03;0.90;99.90
8178;DHT22;4130;48.740;9.132;2024-01-30T03:08:37;0.90;99.90
8178;DHT22;4130;48.740;9.132;2024-01-30T03:11:04;0.80;99.90
8178;DHT22;4130;48.740;9.132;2024-01-30T03:13:32;0.90;99.90
8178;DHT22;4130;48.740;9.132;2024-01-30T03:16:01;0.90;99.90
8178;DHT22;4130;48.740;9.132;2024-01-30T03:18:28;0.90;99.90
8178;DHT22;4130;48.740;9.132;2024-01-30T03:20:57;1.00;99.90
8178;DHT22;4130;48.740;9.132;2024-01-30T03:23:24;1.00;99.90
8178;DHT22;4130;48.740;9.132;2024-01-30T03:25:51;1.10;99.90
8178;DHT22;4130;48.740;9.132;2024-01-30T03:28:18;1.10;99.90
8178;DHT22;4130;48.740;9.132;2024-01-30T03:30:47;1.10;99.90
8178;DHT22;4130;48.740;9.132;2024-01-30T03:33:16;1.10;99.90
8178;DHT22;4130;48.740;9.132;2024-01-30T03:35:43;1.10;99.90
8178;DHT22;4130;48.740;9.132;2024-01-30T03:38:10;1.10;99.90
8178;DHT22;4130;48.740;9.132;2024-01-30T03:40:37;1.10;99.90
8178;DHT22;4130;48.740;9.132;2024-01-30T03:43:04;1.10;99.90
8178;DHT22;4130;48.740;9.132;2024-01-30T03:45:35;1.10;99.90
8178;DHT22;4130;48.740;9.132;2024-01-30T03:48:03;1.00;99.90
8178;DHT22;4130;48.740;9.132;2024-01-30T03:50:31;1.00;99.90
8178;DHT22;4130;48.740;9.132;2024-01-30T03:52:58;1.00;99.90
8178;DHT22;4130;48.740;9.132;2024-01-30T03:55:26;1.00;99.90
8178;DHT22;4130;48.740;9.132;2024-01-30T03:57:53;1.00;99.90
8178;DHT22;4130;48.740;9.132;2024-01-30T04:00:20;1.00;99.90
8178;DHT22;4130;48.740;9.132;2024-01-30T04:02:47;1.00;99.90
8178;DHT22;4130;48.740;9.132;2024-01-30T04:05:15;0.90;99.90
8178;DHT22;4130;48.740;9.132;2024-01-30T04:07:42;0.90;99.90
8178;DHT22;4130;48.740;9.132;2024-01-30T04:10:10;0.90;99.90
8178;DHT22;4130;48.740;9.132;2024-01-30T04:12:37;0.90;99.90
8178;DHT22;4130;48.740;9.132;2024-01-30T04:15:05;0.80;99.90
8178;DHT22;4130;48.740;9.132;2024-01-30T04:17:31;0.80;99.90
8178;DHT22;4130;48.740;9.132;2024-01-30T04:19:59;0.80;99.90
8178;DHT22;4130;48.740;9.132;2024-01-30T04:22:27;0.80;99.90
8178;DHT22;4130;48.740;9.132;2024-01-30T04:24:54;0.80;99.90
8178;DHT22;4130;48.740;9.132;2024-01-30T04:27:21;0.80;99.90
8178;DHT22;4130;48.740;9.132;2024-01-30T04:29:48;0.80;99.90
8178;DHT22;4130;48.740;9.132;2024-01-30T04:32:16;0.80;99.90
8178;DHT22;4130;48.740;9.132;2024-01-30T04:34:43;0.90;99.90
8178;DHT22;4130;48.740;9.132;2024-01-30T04:37:11;0.80;99.90
8178;DHT22;4130;48.740;9.132;2024-01-30T04:39:39;0.80;99.90
8178;DHT22;4130;48.740;9.132;2024-01-30T04:42:06;0.80;99.90
8178;DHT22;4130;48.740;9.132;2024-01-30T04:44:33;0.80;99.90
8178;DHT22;4130;48.740;9.132;2024-01-30T04:47:00;0.90;99.90
8178;DHT22;4130;48.740;9.132;2024-01-30T04:49:33;0.90;99.90
8178;DHT22;4130;48.740;9.132;2024-01-30T04:52:00;0.80;99.90
8178;DHT22;4130;48.740;9.132;2024-01-30T04:54:27;0.80;99.90
8178;DHT22;4130;48.740;9.132;2024-01-30T04:56:56;0.80;99.90
8178;DHT22;4130;48.740;9.132;2024-01-30T04:59:23;0.80;99.90
8178;DHT22;4130;48.740;9.132;2024-01-30T05:01:51;0.70;99.90
8178;DHT22;4130;48.740;9.132;2024-01-30T05:04:18;0.70;99.90
8178;DHT22;4130;48.740;9.132;2024-01-30T05:06:45;0.60;99.90
8178;DHT22;4130;48.740;9.132;2024-01-30T05:09:12;0.60;99.90
8178;DHT22;4130;48.740;9.132;2024-01-30T05:11:39;0.60;99.90
8178;DHT22;4130;48.740;9.132;2024-01-30T05:14:08;0.50;99.90
8178;DHT22;4130;48.740;9.132;2024-01-30T05:16:37;0.60;99.90
8178;DHT22;4130;48.740;9.132;2024-01-30T05:19:04;0.60;99.90
8178;DHT22;4130;48.740;9.132;2024-01-30T05:21:31;0.60;99.90
8178;DHT22;4130;48.740;9.132;2024-01-30T05:23:58;0.60;99.90
8178;DHT22;4130;48.740;9.132;2024-01-30T05:26:25;0.60;99.90
8178;DHT22;4130;48.740;9.132;2024-01-30T05:28:52;0.60;99.90
8178;DHT22;4130;48.740;9.132;2024-01-30T05:31:23;0.60;99.90
8178;DHT22;4130;48.740;9.132;2024-01-30T05:33:51;0.60;99.90
8178;DHT22;4130;48.740;9.132;2024-01-30T05:36:18;0.70;99.90
8178;DHT22;4130;48.740;9.132;2024-01-30T05:38:46;0.70;99.90
8178;DHT22;4130;48.740;9.132;2024-01-30T05:41:13;0.80;99.90
8178;DHT22;4130;48.740;9.132;2024-01-30T05:43:42;0.80;99.90
8178;DHT22;4130;48.740;9.132;2024-01-30T05:46:09;0.80;99.90
8178;DHT22;4130;48.740;9.132;2024-01-30T05:48:38;0.80;99.90
8178;DHT22;4130;48.740;9.132;2024-01-30T05:51:06;0.80;99.90
8178;DHT22;4130;48.740;9.132;2024-01-30T05:53:33;0.70;99.90
8178;DHT22;4130;48.740;9.132;2024-01-30T05:56:01;0.70;99.90
8178;DHT22;4130;48.740;9.132;2024-01-30T05:58:28;0.70;99.90
8178;DHT22;4130;48.740;9.132;2024-01-30T06:00:56;0.60;99.90
8178;DHT22;4130;48.740;9.132;2024-01-30T06:03:24;0.60;99.90
8178;DHT22;4130;48.740;9.132;2024-01-30T06:05:52;0.60;99.90
8178;DHT22;4130;48.740;9.132;2024-01-30T06:08:19;0.50;99.90
8178;DHT22;4130;48.740;9.132;2024-01-30T06:10:46;0.50;99.90
8178;DHT22;4130;48.740;9.132;2024-01-30T06:13:13;0.50;99.90
8178;DHT22;4130;48.740;9.132;2024-01-30T06:15:40;0.60;99.90
8178;DHT22;4130;48.740;9.132;2024-01-30T06:18:07;0.60;99.90
8178;DHT22;4130;48.740;9.132;2024-01-30T06:20:34;0.60;99.90
8178;DHT22;4130;48.740;9.132;2024-01-30T06:23:03;0.60;99.90
8178;DHT22;4130;48.740;9.132;2024-01-30T06:25:30;0.60;99.90
8178;DHT22;4130;48.740;9.132;2024-01-30T06:27:57;0.70;99.90
8178;DHT22;4130;48.740;9.132;2024-01-30T06:30:24;0.70;99.90
8178;DHT22;4130;48.740;9.132;2024-01-30T06:32:51;0.70;99.90
8178;DHT22;4130;48.740;9.132;2024-01-30T06:35:19;0.70;99.90
8178;DHT22;4130;48.740;9.132;2024-01-30T06:37:47;0.70;99.90
8178;DHT22;4130;48.740;9.132;2024-01-30T06:40:15;0.70;99.90
8178;DHT22;4130;48.740;9.132;2024-01-30T06:42:42;0.70;99.90
8178;DHT22;4130;48.740;9.132;2024-01-30T06:45:09;0.70;99.90
8178;DHT22;4130;48.740;9.132;2024-01-30T06:47:36;0.70;99.90
8178;DHT22;4130;48.740;9.132;2024-01-30T06:50:04;0.60;99.90
8178;DHT22;4130;48.740;9.132;2024-01-30T06:52:31;0.70;99.90
8178;DHT22;4130;48.740;9.132;2024-01-30T06:55:00;0.60;99.90
8178;DHT22;4130;48.740;9.132;2024-01-30T06:57:28;0.60;99.90
8178;DHT22;4130;48.740;9.132;2024-01-30T06:59:56;0.60;99.90
8178;DHT22;4130;48.740;9.132;2024-01-30T07:02:23;0.60;99.90
8178;DHT22;4130;48.740;9.132;2024-01-30T07:04:50;0.70;99.90
8178;DHT22;4130;48.740;9.132;2024-01-30T07:07:17;0.60;99.90
8178;DHT22;4130;48.740;9.132;2024-01-30T07:09:44;0.70;99.90
8178;DHT22;4130;48.740;9.132;2024-01-30T07:12:11;0.70;99.90
8178;DHT22;4130;48.740;9.132;2024-01-30T07:14:39;0.70;99.90
8178;DHT22;4130;48.740;9.132;2024-01-30T07:17:06;0.70;99.90
8178;DHT22;4130;48.740;9.132;2024-01-30T07:19:33;0.70;99.90
8178;DHT22;4130;48.740;9.132;2024-01-30T07:22:01;0.80;99.90
8178;DHT22;4130;48.740;9.132;2024-01-30T07:24:28;0.70;99.90
8178;DHT22;4130;48.740;9.132;2024-01-30T07:26:55;0.80;99.90
8178;DHT22;4130;48.740;9.132;2024-01-30T07:29:23;0.80;99.90
8178;DHT22;4130;48.740;9.132;2024-01-30T07:31:52;0.80;99.90
8178;DHT22;4130;48.740;9.132;2024-01-30T07:34:19;0.80;99.90
8178;DHT22;4130;48.740;9.132;2024-01-30T07:36:46;0.80;99.90
8178;DHT22;4130;48.740;9.132;2024-01-30T07:39:13;0.90;99.90
8178;DHT22;4130;48.740;9.132;2024-01-30T07:41:40;0.90;99.90
8178;DHT22;4130;48.740;9.132;2024-01-30T07:44:07;0.90;99.90
8178;DHT22;4130;48.740;9.132;2024-01-30T07:46:34;1.00;99.90
8178;DHT22;4130;48.740;9.132;2024-01-30T07:49:02;1.10;99.90
8178;DHT22;4130;48.740;9.132;2024-01-30T07:51:29;1.20;99.90
8178;DHT22;4130;48.740;9.132;2024-01-30T07:53:58;1.30;99.90
8178;DHT22;4130;48.740;9.132;2024-01-30T07:56:25;1.30;99.90
8178;DHT22;4130;48.740;9.132;2024-01-30T07:58:52;1.40;99.90
8178;DHT22;4130;48.740;9.132;2024-01-30T08:01:19;1.50;99.90
8178;DHT22;4130;48.740;9.132;2024-01-30T08:03:46;1.70;99.90
8178;DHT22;4130;48.740;9.132;2024-01-30T08:06:14;1.70;99.90
8178;DHT22;4130;48.740;9.132;2024-01-30T08:08:41;1.80;99.90
8178;DHT22;4130;48.740;9.132;2024-01-30T08:11:08;1.90;99.90
8178;DHT22;4130;48.740;9.132;2024-01-30T08:13:35;2.00;99.90
8178;DHT22;4130;48.740;9.132;2024-01-30T08:16:03;2.10;99.90
8178;DHT22;4130;48.740;9.132;2024-01-30T08:18:30;2.20;99.90
8178;DHT22;4130;48.740;9.132;2024-01-30T08:20:57;2.30;99.90
8178;DHT22;4130;48.740;9.132;2024-01-30T08:23:26;2.40;99.90
8178;DHT22;4130;48.740;9.132;2024-01-30T08:25:53;2.50;99.90
8178;DHT22;4130;48.740;9.132;2024-01-30T08:28:20;3.20;99.90
8178;DHT22;4130;48.740;9.132;2024-01-30T08:30:47;2.70;99.90
8178;DHT22;4130;48.740;9.132;2024-01-30T08:33:14;2.70;99.90
8178;DHT22;4130;48.740;9.132;2024-01-30T08:35:42;2.70;99.90
8178;DHT22;4130;48.740;9.132;2024-01-30T08:38:09;2.80;99.90
8178;DHT22;4130;48.740;9.132;2024-01-30T08:40:39;2.80;99.90
8178;DHT22;4130;48.740;9.132;2024-01-30T08:43:06;2.80;99.90
8178;DHT22;4130;48.740;9.132;2024-01-30T08:45:35;2.80;99.90
8178;DHT22;4130;48.740;9.132;2024-01-30T08:48:02;2.90;99.90
8178;DHT22;4130;48.740;9.132;2024-01-30T08:50:29;2.90;99.90
8178;DHT22;4130;48.740;9.132;2024-01-30T08:52:56;2.90;99.90
8178;DHT22;4130;48.740;9.132;2024-01-30T08:55:23;2.90;99.90
8178;DHT22;4130;48.740;9.132;2024-01-30T08:57:52;3.00;99.90
8178;DHT22;4130;48.740;9.132;2024-01-30T09:00:19;3.10;99.90
8178;DHT22;4130;48.740;9.132;2024-01-30T09:02:46;3.20;99.90
8178;DHT22;4130;48.740;9.132;2024-01-30T09:05:14;3.40;99.90
8178;DHT22;4130;48.740;9.132;2024-01-30T09:07:43;3.50;99.90
8178;DHT22;4130;48.740;9.132;2024-01-30T09:10:11;3.60;99.90
8178;DHT22;4130;48.740;9.132;2024-01-30T09:12:38;3.80;99.90
8178;DHT22;4130;48.740;9.132;2024-01-30T09:15:08;3.90;99.90
8178;DHT22;4130;48.740;9.132;2024-01-30T09:17:35;4.10;99.90
8178;DHT22;4130;48.740;9.132;2024-01-30T09:20:02;4.20;99.90
8178;DHT22;4130;48.740;9.132;2024-01-30T09:22:29;4.30;99.90
8178;DHT22;4130;48.740;9.132;2024-01-30T09:24:57;4.50;99.90
8178;DHT22;4130;48.740;9.132;2024-01-30T09:27:24;4.60;99.90
8178;DHT22;4130;48.740;9.132;2024-01-30T09:29:51;4.70;99.90
8178;DHT22;4130;48.740;9.132;2024-01-30T09:32:20;4.90;99.90
8178;DHT22;4130;48.740;9.132;2024-01-30T09:34:47;5.10;99.90
8178;DHT22;4130;48.740;9.132;2024-01-30T09:37:14;5.30;99.90
8178;DHT22;4130;48.740;9.132;2024-01-30T09:39:43;5.50;99.90
8178;DHT22;4130;48.740;9.132;2024-01-30T09:42:17;5.70;99.90
8178;DHT22;4130;48.740;9.132;2024-01-30T09:44:47;5.90;99.90
8178;DHT22;4130;48.740;9.132;2024-01-30T09:47:17;6.10;99.90
8178;DHT22;4130;48.740;9.132;2024-01-30T09:49:46;6.30;99.90
8178;DHT22;4130;48.740;9.132;2024-01-30T09:52:14;6.50;99.90
8178;DHT22;4130;48.740;9.132;2024-01-30T09:54:42;6.70;99.90
8178;DHT22;4130;48.740;9.132;2024-01-30T09:57:11;6.90;99.90
8178;DHT22;4130;48.740;9.132;2024-01-30T09:59:38;7.20;99.90
8178;DHT22;4130;48.740;9.132;2024-01-30T10:02:06;7.50;99.90
8178;DHT22;4130;48.740;9.132;2024-01-30T10:04:33;7.60;99.90
8178;DHT22;4130;48.740;9.132;2024-01-30T10:07:02;7.90;99.90
8178;DHT22;4130;48.740;9.132;2024-01-30T10:09:32;8.10;99.90
8178;DHT22;4130;48.740;9.132;2024-01-30T10:11:58;8.30;99.90
8178;DHT22;4130;48.740;9.132;2024-01-30T10:14:25;8.40;99.90
8178;DHT22;4130;48.740;9.132;2024-01-30T10:16:52;8.40;99.90
8178;DHT22;4130;48.740;9.132;2024-01-30T10:19:19;8.50;99.90
8178;DHT22;4130;48.740;9.132;2024-01-30T10:21:46;8.70;99.90
8178;DHT22;4130;48.740;9.132;2024-01-30T10:24:15;8.80;99.90
8178;DHT22;4130;48.740;9.132;2024-01-30T10:26:43;8.90;99.90
8178;DHT22;4130;48.740;9.132;2024-01-30T10:29:10;9.00;99.90
8178;DHT22;4130;48.740;9.132;2024-01-30T10:31:37;9.10;99.90
8178;DHT22;4130;48.740;9.132;2024-01-30T10:34:04;9.20;99.90
8178;DHT22;4130;48.740;9.132;2024-01-30T10:36:39;9.30;99.90
8178;DHT22;4130;48.740;9.132;2024-01-30T10:39:06;9.50;99.90
8178;DHT22;4130;48.740;9.132;2024-01-30T10:41:43;9.70;99.90
8178;DHT22;4130;48.740;9.132;2024-01-30T10:44:11;9.80;99.90
8178;DHT22;4130;48.740;9.132;2024-01-30T10:46:38;10.00;99.90
8178;DHT22;4130;48.740;9.132;2024-01-30T10:52:39;10.30;99.90
8178;DHT22;4130;48.740;9.132;2024-01-30T10:55:08;10.40;99.90
8178;DHT22;4130;48.740;9.132;2024-01-30T10:57:36;10.50;99.90
8178;DHT22;4130;48.740;9.132;2024-01-30T11:00:06;10.60;99.90
8178;DHT22;4130;48.740;9.132;2024-01-30T11:02:36;10.70;99.90
8178;DHT22;4130;48.740;9.132;2024-01-30T11:05:05;10.80;99.90
8178;DHT22;4130;48.740;9.132;2024-01-30T11:07:32;10.90;99.90
8178;DHT22;4130;48.740;9.132;2024-01-30T11:10:03;11.00;99.90
8178;DHT22;4130;48.740;9.132;2024-01-30T11:12:32;11.10;99.90
8178;DHT22;4130;48.740;9.132;2024-01-30T11:15:06;11.20;99.90
8178;DHT22;4130;48.740;9.132;2024-01-30T11:17:41;11.20;99.90
8178;DHT22;4130;48.740;9.132;2024-01-30T11:20:10;11.30;99.90
8178;DHT22;4130;48.740;9.132;2024-01-30T11:22:41;11.40;99.90
8178;DHT22;4130;48.740;9.132;2024-01-30T11:25:11;11.40;99.90
8178;DHT22;4130;48.740;9.132;2024-01-30T11:27:38;11.50;99.90
8178;DHT22;4130;48.740;9.132;2024-01-30T11:30:09;11.60;99.90
8178;DHT22;4130;48.740;9.132;2024-01-30T11:32:36;11.60;99.90
8178;DHT22;4130;48.740;9.132;2024-01-30T11:35:04;11.70;99.90
8178;DHT22;4130;48.740;9.132;2024-01-30T11:37:32;11.70;99.20
8178;DHT22;4130;48.740;9.132;2024-01-30T11:40:04;11.80;99.50
8178;DHT22;4130;48.740;9.132;2024-01-30T11:42:32;11.90;99.00
8178;DHT22;4130;48.740;9.132;2024-01-30T11:45:00;11.90;99.40
8178;DHT22;4130;48.740;9.132;2024-01-30T11:47:30;12.00;98.80
8178;DHT22;4130;48.740;9.132;2024-01-30T11:52:28;12.10;98.20
8178;DHT22;4130;48.740;9.132;2024-01-30T11:54:56;12.10;97.50
8178;DHT22;4130;48.740;9.132;2024-01-30T11:57:23;12.10;97.80
8178;DHT22;4130;48.740;9.132;2024-01-30T11:59:50;12.20;97.00
8178;DHT22;4130;48.740;9.132;2024-01-30T12:02:17;12.20;96.60
8178;DHT22;4130;48.740;9.132;2024-01-30T12:04:45;12.30;97.10
8178;DHT22;4130;48.740;9.132;2024-01-30T12:07:13;12.40;96.50
8178;DHT22;4130;48.740;9.132;2024-01-30T12:09:42;12.40;96.80
8178;DHT22;4130;48.740;9.132;2024-01-30T12:12:09;12.40;96.40
8178;DHT22;4130;48.740;9.132;2024-01-30T12:14:38;12.50;96.40
8178;DHT22;4130;48.740;9.132;2024-01-30T12:17:06;12.50;96.00
8178;DHT22;4130;48.740;9.132;2024-01-30T12:19:34;12.50;95.90
8178;DHT22;4130;48.740;9.132;2024-01-30T12:22:03;12.50;95.60
8178;DHT22;4130;48.740;9.132;2024-01-30T12:24:30;12.60;94.60
8178;DHT22;4130;48.740;9.132;2024-01-30T12:26:57;12.60;95.50
8178;DHT22;4130;48.740;9.132;2024-01-30T12:29:25;12.50;95.10
8178;DHT22;4130;48.740;9.132;2024-01-30T12:31:53;12.60;94.30
8178;DHT22;4130;48.740;9.132;2024-01-30T12:34:21;12.60;94.80
8178;DHT22;4130;48.740;9.132;2024-01-30T12:36:48;12.60;94.60
8178;DHT22;4130;48.740;9.132;2024-01-30T12:39:17;12.70;94.70
8178;DHT22;4130;48.740;9.132;2024-01-30T12:41:44;12.70;93.50
8178;DHT22;4130;48.740;9.132;2024-01-30T12:44:13;12.70;93.90
8178;DHT22;4130;48.740;9.132;2024-01-30T12:46:40;12.70;93.40
8178;DHT22;4130;48.740;9.132;2024-01-30T12:49:07;12.80;93.20
8178;DHT22;4130;48.740;9.132;2024-01-30T12:51:34;12.80;93.80
8178;DHT22;4130;48.740;9.132;2024-01-30T12:54:05;12.80;93.40
8178;DHT22;4130;48.740;9.132;2024-01-30T12:56:33;12.80;92.40
8178;DHT22;4130;48.740;9.132;2024-01-30T12:59:00;12.70;92.90
8178;DHT22;4130;48.740;9.132;2024-01-30T13:01:27;12.60;93.10
8178;DHT22;4130;48.740;9.132;2024-01-30T13:03:55;12.60;92.50
8178;DHT22;4130;48.740;9.132;2024-01-30T13:06:24;12.60;92.20
8178;DHT22;4130;48.740;9.132;2024-01-30T13:08:52;12.60;92.50
8178;DHT22;4130;48.740;9.132;2024-01-30T13:11:19;12.70;91.90
8178;DHT22;4130;48.740;9.132;2024-01-30T13:13:48;12.70;91.80
8178;DHT22;4130;48.740;9.132;2024-01-30T13:16:15;12.80;91.80
8178;DHT22;4130;48.740;9.132;2024-01-30T13:18:43;12.80;91.70
8178;DHT22;4130;48.740;9.132;2024-01-30T13:21:10;12.90;91.80
8178;DHT22;4130;48.740;9.132;2024-01-30T13:23:39;12.90;92.40
8178;DHT22;4130;48.740;9.132;2024-01-30T13:26:06;13.00;91.60
8178;DHT22;4130;48.740;9.132;2024-01-30T13:28:33;12.90;91.70
8178;DHT22;4130;48.740;9.132;2024-01-30T13:31:01;12.90;91.70
8178;DHT22;4130;48.740;9.132;2024-01-30T13:33:28;12.90;92.70
8178;DHT22;4130;48.740;9.132;2024-01-30T13:35:55;13.00;91.80
8178;DHT22;4130;48.740;9.132;2024-01-30T13:38:23;13.00;92.10
8178;DHT22;4130;48.740;9.132;2024-01-30T13:40:50;13.00;92.30
8178;DHT22;4130;48.740;9.132;2024-01-30T13:43:17;13.10;91.50
8178;DHT22;4130;48.740;9.132;2024-01-30T13:45:44;13.00;92.40
8178;DHT22;4130;48.740;9.132;2024-01-30T13:48:13;13.10;91.80
8178;DHT22;4130;48.740;9.132;2024-01-30T13:50:40;13.10;92.40
8178;DHT22;4130;48.740;9.132;2024-01-30T13:53:08;13.20;91.80
8178;DHT22;4130;48.740;9.132;2024-01-30T13:55:35;13.20;91.30
8178;DHT22;4130;48.740;9.132;2024-01-30T13:58:05;13.20;91.40
8178;DHT22;4130;48.740;9.132;2024-01-30T14:00:33;13.20;91.60
8178;DHT22;4130;48.740;9.132;2024-01-30T14:03:00;13.20;91.40
8178;DHT22;4130;48.740;9.132;2024-01-30T14:05:29;13.10;91.50
8178;DHT22;4130;48.740;9.132;2024-01-30T14:07:56;13.00;91.40
8178;DHT22;4130;48.740;9.132;2024-01-30T14:10:25;13.00;91.60
8178;DHT22;4130;48.740;9.132;2024-01-30T14:12:53;12.90;91.30
8178;DHT22;4130;48.740;9.132;2024-01-30T14:15:20;12.90;91.10
8178;DHT22;4130;48.740;9.132;2024-01-30T14:17:48;12.90;91.60
8178;DHT22;4130;48.740;9.132;2024-01-30T14:20:15;12.90;91.60
8178;DHT22;4130;48.740;9.132;2024-01-30T14:22:45;12.90;91.70
8178;DHT22;4130;48.740;9.132;2024-01-30T14:25:13;12.90;91.40
8178;DHT22;4130;48.740;9.132;2024-01-30T14:27:42;12.90;91.40
8178;DHT22;4130;48.740;9.132;2024-01-30T14:30:10;12.90;91.50
8178;DHT22;4130;48.740;9.132;2024-01-30T14:32:38;12.80;91.90
8178;DHT22;4130;48.740;9.132;2024-01-30T14:35:06;12.80;91.30
8178;DHT22;4130;48.740;9.132;2024-01-30T14:37:34;12.80;91.90
8178;DHT22;4130;48.740;9.132;2024-01-30T14:40:04;12.70;92.40
8178;DHT22;4130;48.740;9.132;2024-01-30T14:42:32;12.70;92.40
8178;DHT22;4130;48.740;9.132;2024-01-30T14:45:00;12.50;91.80
8178;DHT22;4130;48.740;9.132;2024-01-30T14:47:28;12.50;91.90
8178;DHT22;4130;48.740;9.132;2024-01-30T14:49:56;12.40;92.10
8178;DHT22;4130;48.740;9.132;2024-01-30T14:52:23;12.30;92.50
8178;DHT22;4130;48.740;9.132;2024-01-30T14:54:50;12.10;93.20
8178;DHT22;4130;48.740;9.132;2024-01-30T14:57:19;11.90;92.70
8178;DHT22;4130;48.740;9.132;2024-01-30T14:59:47;11.80;93.20
8178;DHT22;4130;48.740;9.132;2024-01-30T15:02:14;11.60;93.20
8178;DHT22;4130;48.740;9.132;2024-01-30T15:04:41;11.50;93.60
8178;DHT22;4130;48.740;9.132;2024-01-30T15:07:08;11.30;93.80
8178;DHT22;4130;48.740;9.132;2024-01-30T15:09:35;11.10;93.90
8178;DHT22;4130;48.740;9.132;2024-01-30T15:12:03;11.00;94.10
8178;DHT22;4130;48.740;9.132;2024-01-30T15:14:32;10.80;94.30
8178;DHT22;4130;48.740;9.132;2024-01-30T15:16:59;10.70;94.30
8178;DHT22;4130;48.740;9.132;2024-01-30T15:19:27;10.50;94.50
8178;DHT22;4130;48.740;9.132;2024-01-30T15:21:54;10.40;94.60
8178;DHT22;4130;48.740;9.132;2024-01-30T15:24:21;10.30;94.50
8178;DHT22;4130;48.740;9.132;2024-01-30T15:26:50;10.10;94.70
8178;DHT22;4130;48.740;9.132;2024-01-30T15:29:18;10.10;94.80
8178;DHT22;4130;48.740;9.132;2024-01-30T15:31:48;10.00;94.70
8178;DHT22;4130;48.740;9.132;2024-01-30T15:34:15;10.00;94.80
8178;DHT22;4130;48.740;9.132;2024-01-30T15:36:43;9.90;95.60
8178;DHT22;4130;48.740;9.132;2024-01-30T15:39:10;9.70;95.80
8178;DHT22;4130;48.740;9.132;2024-01-30T15:41:37;9.60;96.20
8178;DHT22;4130;48.740;9.132;2024-01-30T15:44:04;9.50;96.50
8178;DHT22;4130;48.740;9.132;2024-01-30T15:46:31;9.30;96.60
8178;DHT22;4130;48.740;9.132;2024-01-30T15:49:00;9.20;96.70
8178;DHT22;4130;48.740;9.132;2024-01-30T15:51:30;9.10;97.10
8178;DHT22;4130;48.740;9.132;2024-01-30T15:53:57;9.00;97.40
8178;DHT22;4130;48.740;9.132;2024-01-30T15:56:24;8.80;97.70
8178;DHT22;4130;48.740;9.132;2024-01-30T15:58:51;8.70;97.90
8178;DHT22;4130;48.740;9.132;2024-01-30T16:01:19;8.70;98.10
8178;DHT22;4130;48.740;9.132;2024-01-30T16:03:46;8.60;98.40
8178;DHT22;4130;48.740;9.132;2024-01-30T16:06:15;8.40;98.70
8178;DHT22;4130;48.740;9.132;2024-01-30T16:11:30;8.30;99.00
8178;DHT22;4130;48.740;9.132;2024-01-30T16:13:59;8.20;99.20
8178;DHT22;4130;48.740;9.132;2024-01-30T16:16:34;8.10;99.40
8178;DHT22;4130;48.740;9.132;2024-01-30T16:19:09;8.10;99.80
8178;DHT22;4130;48.740;9.132;2024-01-30T16:21:38;7.90;99.90
8178;DHT22;4130;48.740;9.132;2024-01-30T16:24:05;7.80;99.90